createdAt,value
2022-09-06T00:02:25.580Z,100233.59
2022-09-06T00:04:52.018Z,100232.84
2022-09-06T00:07:18.368Z,100241.59
2022-09-06T00:09:44.711Z,100240.91
2022-09-06T00:12:12.394Z,100234.81
2022-09-06T00:14:38.748Z,100233.69
2022-09-06T00:17:05.104Z,100233.38
2022-09-06T00:19:31.492Z,100231.38
2022-09-06T00:21:57.962Z,100232.78
2022-09-06T00:24:24.465Z,100229.31
2022-09-06T00:26:50.880Z,100230.38
2022-09-06T00:29:18.653Z,100236.56
2022-09-06T00:31:45.001Z,100227.25
2022-09-06T00:34:11.605Z,100217.75
2022-09-06T00:36:37.983Z,100213.53
2022-09-06T00:39:04.580Z,100206.59
2022-09-06T00:41:30.926Z,100197.69
2022-09-06T00:43:57.304Z,100192.44
2022-09-06T00:46:26.613Z,100195.31
2022-09-06T00:48:55.957Z,100187.94
2022-09-06T00:51:24.018Z,100161.84
2022-09-06T00:53:50.760Z,100161.56
2022-09-06T00:56:17.147Z,100166.06
2022-09-06T00:58:43.792Z,100179.75
2022-09-06T01:01:10.499Z,100164.16
2022-09-06T01:03:38.748Z,100164.59
2022-09-06T01:06:14.906Z,100166.28
2022-09-06T01:08:46.642Z,100148.28
2022-09-06T01:11:22.079Z,100142.06
2022-09-06T01:13:54.270Z,100154.69
2022-09-06T01:16:26.639Z,100164.72
2022-09-06T01:19:01.842Z,100172.88
2022-09-06T01:21:35.451Z,100174.16
2022-09-06T01:24:16.623Z,100186.66
2022-09-06T01:27:04.157Z,100203.19
2022-09-06T01:29:36.557Z,100206.31
2022-09-06T01:32:07.471Z,100202.22
2022-09-06T01:34:37.563Z,100199.53
2022-09-06T01:37:10.823Z,100201.50
2022-09-06T01:39:38.772Z,100186.53
2022-09-06T01:42:07.089Z,100187.25
2022-09-06T01:44:35.467Z,100187.78
2022-09-06T01:47:09.128Z,100191.59
2022-09-06T01:49:41.528Z,100194.94
2022-09-06T01:52:13.272Z,100190.72
2022-09-06T01:54:46.840Z,100193.00
2022-09-06T01:57:17.821Z,100179.09
2022-09-06T01:59:54.903Z,100166.09
2022-09-06T02:02:25.782Z,100171.78
2022-09-06T02:04:56.346Z,100169.06
2022-09-06T02:07:25.084Z,100165.44
2022-09-06T02:09:54.322Z,100161.53
2022-09-06T02:12:22.441Z,100153.09
2022-09-06T02:14:52.717Z,100171.22
2022-09-06T02:17:21.224Z,100165.72
2022-09-06T02:19:50.581Z,100180.44
2022-09-06T02:22:18.769Z,100189.47
2022-09-06T02:24:47.131Z,100193.31
2022-09-06T02:27:13.603Z,100185.25
2022-09-06T02:29:40.521Z,100170.28
2022-09-06T02:32:12.464Z,100170.41
2022-09-06T02:34:39.015Z,100164.34
2022-09-06T02:37:05.668Z,100156.28
2022-09-06T02:39:32.258Z,100146.94
2022-09-06T02:41:58.669Z,100150.16
2022-09-06T02:44:25.239Z,100146.91
2022-09-06T02:46:56.355Z,100148.97
2022-09-06T02:49:24.689Z,100158.03
2022-09-06T02:51:51.017Z,100166.22
2022-09-06T02:54:17.379Z,100166.84
2022-09-06T02:56:43.711Z,100174.94
2022-09-06T02:59:10.042Z,100175.81
2022-09-06T03:01:36.448Z,100172.50
2022-09-06T03:04:02.903Z,100171.34
2022-09-06T03:06:30.529Z,100165.72
2022-09-06T03:08:56.845Z,100171.22
2022-09-06T03:11:23.338Z,100172.22
2022-09-06T03:13:49.748Z,100164.88
2022-09-06T03:16:16.433Z,100167.00
2022-09-06T03:18:42.877Z,100161.94
2022-09-06T03:21:09.422Z,100162.06
2022-09-06T03:23:37.024Z,100157.69
2022-09-06T03:26:03.367Z,100159.66
2022-09-06T03:28:29.679Z,100163.34
2022-09-06T03:30:56.070Z,100162.66
2022-09-06T03:33:22.480Z,100172.13
2022-09-06T03:35:49.425Z,100182.53
2022-09-06T03:38:16.063Z,100184.66
2022-09-06T03:40:45.134Z,100181.22
2022-09-06T03:43:11.777Z,100190.72
2022-09-06T03:45:38.190Z,100197.81
2022-09-06T03:48:04.616Z,100204.16
2022-09-06T03:50:30.948Z,100200.34
2022-09-06T03:52:57.274Z,100197.81
2022-09-06T03:55:23.604Z,100199.22
2022-09-06T03:57:51.235Z,100200.91
2022-09-06T04:00:17.655Z,100195.69
2022-09-06T04:02:43.991Z,100193.72
2022-09-06T04:05:10.489Z,100192.16
2022-09-06T04:07:36.823Z,100188.34
2022-09-06T04:10:03.291Z,100195.00
2022-09-06T04:12:29.620Z,100204.06
2022-09-06T04:14:57.357Z,100196.97
2022-09-06T04:17:23.731Z,100196.31
2022-09-06T04:19:50.028Z,100193.91
2022-09-06T04:22:16.390Z,100188.81
2022-09-06T04:24:42.722Z,100182.59
2022-09-06T04:27:09.053Z,100190.78
2022-09-06T04:29:35.386Z,100181.00
2022-09-06T04:32:03.396Z,100179.44
2022-09-06T04:34:29.783Z,100181.66
2022-09-06T04:36:56.199Z,100175.47
2022-09-06T04:39:22.544Z,100173.06
2022-09-06T04:41:48.898Z,100170.47
2022-09-06T04:44:15.227Z,100180.84
2022-09-06T04:46:42.375Z,100177.72
2022-09-06T04:49:10.046Z,100167.06
2022-09-06T04:51:36.388Z,100171.13
2022-09-06T04:54:02.749Z,100173.13
2022-09-06T04:56:29.094Z,100165.84
2022-09-06T04:58:55.514Z,100180.28
2022-09-06T05:01:21.945Z,100176.47
2022-09-06T05:03:48.387Z,100171.50
2022-09-06T05:06:19.937Z,100182.41
2022-09-06T05:08:46.388Z,100177.22
2022-09-06T05:11:12.720Z,100183.84
2022-09-06T05:13:39.364Z,100184.00
2022-09-06T05:16:07.287Z,100192.22
2022-09-06T05:18:34.089Z,100192.50
2022-09-06T05:21:00.438Z,100190.94
2022-09-06T05:23:28.319Z,100195.19
2022-09-06T05:25:54.740Z,100198.38
2022-09-06T05:28:21.176Z,100212.66
2022-09-06T05:30:47.541Z,100205.47
2022-09-06T05:33:18.903Z,100225.84
2022-09-06T05:35:45.237Z,100223.16
2022-09-06T05:38:11.569Z,100235.31
2022-09-06T05:40:39.267Z,100240.53
2022-09-06T05:43:05.625Z,100248.06
2022-09-06T05:45:31.999Z,100238.16
2022-09-06T05:47:58.354Z,100243.91
2022-09-06T05:50:24.795Z,100238.25
2022-09-06T05:52:53.135Z,100225.53
2022-09-06T05:55:19.459Z,100230.63
2022-09-06T05:57:47.050Z,100238.13
2022-09-06T06:00:13.732Z,100232.47
2022-09-06T06:02:40.137Z,100230.06
2022-09-06T06:05:06.847Z,100227.81
2022-09-06T06:07:33.322Z,100232.34
2022-09-06T06:09:59.676Z,100214.66
2022-09-06T06:12:26.099Z,100202.25
2022-09-06T06:14:53.729Z,100216.78
2022-09-06T06:17:20.129Z,100206.06
2022-09-06T06:19:46.510Z,100211.69
2022-09-06T06:22:12.932Z,100201.50
2022-09-06T06:24:39.276Z,100188.44
2022-09-06T06:27:05.706Z,100197.53
2022-09-06T06:29:32.070Z,100183.94
2022-09-06T06:31:59.700Z,100198.94
2022-09-06T06:34:26.101Z,100201.19
2022-09-06T06:36:52.441Z,100218.44
2022-09-06T06:39:18.774Z,100221.84
2022-09-06T06:41:45.137Z,100224.38
2022-09-06T06:44:11.590Z,100225.78
2022-09-06T06:46:38.146Z,100243.34
2022-09-06T06:49:05.908Z,100242.09
2022-09-06T06:51:32.851Z,100236.56
2022-09-06T06:53:59.522Z,100238.00
2022-09-06T06:56:26.858Z,100234.47
2022-09-06T06:58:54.456Z,100231.22
2022-09-06T07:01:21.924Z,100229.81
2022-09-06T07:03:48.630Z,100234.47
2022-09-06T07:06:21.196Z,100236.16
2022-09-06T07:08:48.051Z,100236.75
2022-09-06T07:11:15.791Z,100226.00
2022-09-06T07:13:43.180Z,100217.41
2022-09-06T07:16:11.332Z,100213.69
2022-09-06T07:18:39.639Z,100197.97
2022-09-06T07:24:10.425Z,100210.97
2022-09-06T07:26:38.457Z,100218.75
2022-09-06T07:29:05.820Z,100213.09
2022-09-06T07:34:19.588Z,100194.72
2022-09-06T07:36:55.383Z,100198.69
2022-09-06T07:39:23.781Z,100187.63
2022-09-06T07:41:50.295Z,100184.53
2022-09-06T07:44:16.788Z,100193.44
2022-09-06T07:46:43.337Z,100192.16
2022-09-06T07:49:09.826Z,100199.53
2022-09-06T07:51:36.208Z,100188.34
2022-09-06T07:54:26.398Z,100192.03
2022-09-06T07:56:50.741Z,100191.31
2022-09-06T07:59:17.141Z,100196.69
2022-09-06T08:01:43.566Z,100207.44
2022-09-06T08:04:10.649Z,100212.13
2022-09-06T08:09:24.580Z,100210.56
2022-09-06T08:11:52.219Z,100211.41
2022-09-06T08:14:18.700Z,100208.88
2022-09-06T08:16:45.170Z,100209.19
2022-09-06T08:19:11.572Z,100204.34
2022-09-06T08:21:38.236Z,100209.72
2022-09-06T08:24:05.342Z,100208.31
2022-09-06T08:26:32.954Z,100215.09
2022-09-06T08:29:01.725Z,100206.03
2022-09-06T08:31:29.021Z,100202.34
2022-09-06T08:33:55.879Z,100198.81
2022-09-06T08:36:22.754Z,100211.81
2022-09-06T08:38:49.184Z,100208.84
2022-09-06T08:41:20.977Z,100204.03
2022-09-06T08:43:50.438Z,100208.41
2022-09-06T08:46:19.905Z,100217.03
2022-09-06T08:48:46.393Z,100209.25
2022-09-06T08:51:24.364Z,100211.81
2022-09-06T08:53:52.896Z,100203.59
2022-09-06T08:56:23.170Z,100211.81
2022-09-06T08:58:56.624Z,100220.56
2022-09-06T09:01:27.829Z,100220.72
2022-09-06T09:03:56.949Z,100220.16
2022-09-06T09:06:24.421Z,100232.31
2022-09-06T09:08:58.745Z,100232.59
2022-09-06T09:11:25.457Z,100228.09
2022-09-06T09:13:55.660Z,100235.16
2022-09-06T09:16:22.784Z,100230.63
2022-09-06T09:18:52.210Z,100236.97
2022-09-06T09:21:20.789Z,100224.81
2022-09-06T09:23:50.062Z,100214.06
2022-09-06T09:26:16.754Z,100222.44
2022-09-06T09:28:58.144Z,100225.25
2022-09-06T09:31:33.593Z,100225.00
2022-09-06T09:34:01.700Z,100231.38
2022-09-06T09:36:28.610Z,100235.75
2022-09-06T09:38:55.661Z,100221.84
2022-09-06T09:41:25.334Z,100230.63
2022-09-06T09:44:00.046Z,100222.41
2022-09-06T09:46:35.113Z,100232.03
2022-09-06T09:49:05.612Z,100225.66
2022-09-06T09:51:35.557Z,100218.03
2022-09-06T09:54:06.394Z,100219.44
2022-09-06T09:56:37.207Z,100223.25
2022-09-06T09:59:06.875Z,100221.41
2022-09-06T10:01:36.869Z,100227.38
2022-09-06T10:09:35.759Z,100225.00
2022-09-06T10:12:02.432Z,100230.63
2022-09-06T10:14:30.133Z,100222.84
2022-09-06T10:16:57.701Z,100212.38
2022-09-06T10:19:35.830Z,100205.72
2022-09-06T10:22:08.746Z,100206.59
2022-09-06T10:24:42.591Z,100191.97
2022-09-06T10:27:09.003Z,100190.84
2022-09-06T10:29:40.042Z,100199.31
2022-09-06T10:32:13.613Z,100190.69
2022-09-06T10:34:49.494Z,100195.94
2022-09-06T10:37:20.636Z,100183.34
2022-09-06T10:39:49.059Z,100180.38
2022-09-06T10:42:20.319Z,100182.22
2022-09-06T10:44:54.341Z,100181.22
2022-09-06T10:47:21.714Z,100184.91
2022-09-06T10:49:50.574Z,100175.84
2022-09-06T10:52:18.895Z,100173.13
2022-09-06T10:54:45.299Z,100183.19
2022-09-06T11:00:05.089Z,100186.78
2022-09-06T11:02:38.202Z,100182.25
2022-09-06T11:10:43.536Z,100177.44
2022-09-06T11:13:11.737Z,100165.84
2022-09-06T11:15:43.994Z,100178.53
2022-09-06T11:18:15.271Z,100173.16
2022-09-06T11:20:45.801Z,100169.53
2022-09-06T11:23:21.865Z,100180.28
2022-09-06T11:25:59.994Z,100176.44
2022-09-06T11:28:30.846Z,100184.38
2022-09-06T11:30:57.658Z,100187.34
2022-09-06T11:33:25.982Z,100176.72
2022-09-06T11:35:56.560Z,100187.91
2022-09-06T11:38:24.755Z,100185.38
2022-09-06T11:40:55.364Z,100196.53
2022-09-06T11:43:36.546Z,100187.78
2022-09-06T11:46:03.047Z,100186.38
2022-09-06T11:48:33.797Z,100175.34
2022-09-06T11:51:02.691Z,100179.97
2022-09-06T11:53:30.001Z,100158.44
2022-09-06T11:56:10.213Z,100162.22
2022-09-06T11:58:45.389Z,100148.41
2022-09-06T12:01:26.574Z,100155.06
2022-09-06T12:06:34.839Z,100149.53
2022-09-06T12:09:01.859Z,100141.53
2022-09-06T12:11:33.112Z,100151.28
2022-09-06T12:14:01.271Z,100144.22
2022-09-06T12:16:42.453Z,100149.03
2022-09-06T12:19:08.907Z,100137.34
2022-09-06T12:21:38.689Z,100124.47
2022-09-06T12:24:05.581Z,100140.91
2022-09-06T12:26:44.223Z,100131.28
2022-09-06T12:29:10.757Z,100128.22
2022-09-06T12:31:39.042Z,100121.16
2022-09-06T12:34:07.005Z,100116.88
2022-09-06T12:36:33.475Z,100111.63
2022-09-06T12:39:02.008Z,100119.69
2022-09-06T12:41:29.431Z,100113.47
2022-09-06T12:43:58.143Z,100111.06
2022-09-06T12:46:25.122Z,100128.22
2022-09-06T12:49:01.184Z,100124.84
2022-09-06T12:51:27.834Z,100119.47
2022-09-06T12:53:55.179Z,100123.97
2022-09-06T12:56:24.117Z,100121.44
2022-09-06T12:58:50.941Z,100121.59
2022-09-06T13:01:21.483Z,100119.19
2022-09-06T13:03:53.633Z,100111.41
2022-09-06T13:06:26.216Z,100111.53
2022-09-06T13:08:55.079Z,100113.19
2022-09-06T13:11:25.467Z,100115.16
2022-09-06T13:13:52.998Z,100102.97
2022-09-06T13:16:20.914Z,100102.22
2022-09-06T13:18:47.729Z,100097.56
2022-09-06T13:21:23.725Z,100099.28
2022-09-06T13:23:50.459Z,100110.19
2022-09-06T13:29:21.699Z,100112.78
2022-09-06T13:31:49.008Z,100112.78
2022-09-06T13:34:20.192Z,100110.47
2022-09-06T13:36:48.380Z,100103.28
2022-09-06T13:39:28.216Z,100101.31
2022-09-06T13:41:55.617Z,100111.50
2022-09-06T13:44:29.588Z,100099.06
2022-09-06T13:46:56.001Z,100109.25
2022-09-06T13:49:22.600Z,100110.41
2022-09-06T13:51:49.272Z,100105.84
2022-09-06T13:54:15.827Z,100105.16
2022-09-06T13:56:42.603Z,100100.09
2022-09-06T13:59:09.354Z,100094.00
2022-09-06T14:01:37.684Z,100090.31
2022-09-06T14:04:05.009Z,100085.78
2022-09-06T14:06:34.779Z,100073.63
2022-09-06T14:09:07.339Z,100080.69
2022-09-06T14:11:34.558Z,100079.28
2022-09-06T14:14:00.886Z,100068.06
2022-09-06T14:16:27.297Z,100079.28
2022-09-06T14:18:55.045Z,100060.38
2022-09-06T14:21:21.469Z,100064.72
2022-09-06T14:23:49.131Z,100065.88
2022-09-06T14:26:15.462Z,100045.09
2022-09-06T14:28:41.843Z,100046.56
2022-09-06T14:31:10.081Z,100055.03
2022-09-06T14:33:36.515Z,100037.59
2022-09-06T14:36:06.088Z,100049.44
2022-09-06T14:38:35.002Z,100045.16
2022-09-06T14:41:02.809Z,100038.47
2022-09-06T14:43:29.203Z,100043.69
2022-09-06T14:45:55.541Z,100041.53
2022-09-06T14:48:21.904Z,100040.09
2022-09-06T14:50:48.307Z,100042.50
2022-09-06T14:53:38.869Z,100033.28
2022-09-06T14:56:02.491Z,100032.03
2022-09-06T14:58:29.930Z,100035.41
2022-09-06T15:00:56.294Z,100039.59
2022-09-06T15:03:22.728Z,100022.53
2022-09-06T15:05:49.217Z,100025.06
2022-09-06T15:08:16.926Z,100018.13
2022-09-06T15:10:52.427Z,100019.00
2022-09-06T15:13:19.005Z,100036.06
2022-09-06T15:15:45.525Z,100032.00
2022-09-06T15:18:11.935Z,100015.03
2022-09-06T15:20:38.325Z,100019.56
2022-09-06T15:25:52.596Z,100026.38
2022-09-06T15:28:19.180Z,100020.00
2022-09-06T15:30:45.650Z,100024.69
2022-09-06T15:33:12.118Z,100022.28
2022-09-06T15:35:38.477Z,100019.88
2022-09-06T15:38:04.976Z,100021.75
2022-09-06T15:40:31.297Z,100025.13
2022-09-06T15:42:59.127Z,100016.31
2022-09-06T15:45:25.721Z,100024.84
2022-09-06T15:47:53.024Z,100028.63
2022-09-06T15:50:40.552Z,100040.78
2022-09-06T15:53:05.644Z,100039.78
2022-09-06T15:55:31.965Z,100038.19
2022-09-06T15:57:59.865Z,100044.56
2022-09-06T16:00:26.198Z,100042.56
2022-09-06T16:02:52.623Z,100040.41
2022-09-06T16:05:19.121Z,100033.19
2022-09-06T16:07:45.582Z,100051.84
2022-09-06T16:10:12.485Z,100048.78
2022-09-06T16:12:38.816Z,100051.25
2022-09-06T16:15:07.006Z,100056.19
2022-09-06T16:17:33.421Z,100055.50
2022-09-06T16:19:59.784Z,100066.53
2022-09-06T16:22:26.120Z,100056.09
2022-09-06T16:24:52.482Z,100053.81
2022-09-06T16:27:19.095Z,100051.28
2022-09-06T16:29:45.427Z,100058.66
2022-09-06T16:32:13.107Z,100056.13
2022-09-06T16:34:39.551Z,100057.97
2022-09-06T16:37:05.977Z,100053.44
2022-09-06T16:39:32.445Z,100047.13
2022-09-06T16:41:58.927Z,100046.97
2022-09-06T16:44:25.434Z,100040.00
2022-09-06T16:46:51.755Z,100040.53
2022-09-06T16:49:20.013Z,100032.19
2022-09-06T16:51:46.980Z,100032.72
2022-09-06T16:54:13.369Z,100034.66
2022-09-06T16:56:39.714Z,100033.81
2022-09-06T16:59:06.860Z,100033.47
2022-09-06T17:01:34.216Z,100039.56
2022-09-06T17:04:00.996Z,100033.41
2022-09-06T17:06:29.108Z,100024.72
2022-09-06T17:08:55.639Z,100011.56
2022-09-06T17:11:22.043Z,100007.78
2022-09-06T17:13:49.471Z,100018.91
2022-09-06T17:16:20.002Z,99993.53
2022-09-06T17:18:48.318Z,99994.38
2022-09-06T17:21:14.927Z,100003.88
2022-09-06T17:23:42.529Z,100010.81
2022-09-06T17:26:08.861Z,100000.75
2022-09-06T17:28:35.899Z,99992.53
2022-09-06T17:31:02.951Z,99989.69
2022-09-06T17:33:29.753Z,99995.06
2022-09-06T17:36:04.266Z,99995.50
2022-09-06T17:38:30.615Z,100000.22
2022-09-06T17:40:58.672Z,100012.56
2022-09-06T17:43:25.060Z,100002.41
2022-09-06T17:45:51.551Z,100000.03
2022-09-06T17:48:17.954Z,99992.78
2022-09-06T17:50:44.396Z,100002.50
2022-09-06T17:53:10.965Z,99991.06
2022-09-06T17:55:38.858Z,99999.22
2022-09-06T17:58:06.687Z,99992.53
2022-09-06T18:00:33.010Z,100004.66
2022-09-06T18:02:59.450Z,99986.72
2022-09-06T18:05:25.816Z,99992.63
2022-09-06T18:07:52.276Z,99983.25
2022-09-06T18:10:18.634Z,99986.59
2022-09-06T18:12:44.958Z,99978.41
2022-09-06T18:15:12.610Z,99980.91
2022-09-06T18:17:39.049Z,99978.25
2022-09-06T18:20:05.861Z,99982.78
2022-09-06T18:22:32.173Z,99964.31
2022-09-06T18:24:58.668Z,99967.59
2022-09-06T18:27:25.038Z,99968.75
2022-09-06T18:29:51.397Z,99978.09
2022-09-06T18:32:19.040Z,99984.63
2022-09-06T18:34:45.418Z,99985.91
2022-09-06T18:37:11.779Z,99989.75
2022-09-06T18:39:38.135Z,99980.13
2022-09-06T18:42:04.574Z,99985.38
2022-09-06T18:44:32.620Z,99968.03
2022-09-06T18:46:59.740Z,99978.47
2022-09-06T18:49:27.999Z,99974.16
2022-09-06T18:51:54.400Z,99972.00
2022-09-06T18:54:21.023Z,99978.59
2022-09-06T18:56:47.475Z,99986.53
2022-09-06T18:59:14.037Z,99990.91
2022-09-06T19:01:40.447Z,99990.44
2022-09-06T19:04:07.072Z,99993.31
2022-09-06T19:06:35.530Z,99988.47
2022-09-06T19:09:03.414Z,99989.84
2022-09-06T19:11:29.824Z,99990.97
2022-09-06T19:13:56.622Z,99980.91
2022-09-06T19:16:23.784Z,99981.94
2022-09-06T19:18:50.635Z,99988.91
2022-09-06T19:21:17.976Z,99990.59
2022-09-06T19:23:46.510Z,99981.44
2022-09-06T19:26:13.723Z,99984.97
2022-09-06T19:28:40.466Z,99981.59
2022-09-06T19:31:08.749Z,99983.56
2022-09-06T19:33:36.327Z,99984.16
2022-09-06T19:36:11.428Z,99983.47
2022-09-06T19:39:01.508Z,99987.13
2022-09-06T19:41:27.533Z,99988.75
2022-09-06T19:43:54.443Z,99991.69
2022-09-06T19:46:21.534Z,99992.22
2022-09-06T19:48:49.045Z,99996.50
2022-09-06T19:51:16.217Z,99988.25
2022-09-06T19:53:43.488Z,99987.81
2022-09-06T19:56:10.199Z,99988.06
2022-09-06T19:58:38.100Z,99995.13
2022-09-06T20:01:04.696Z,99998.50
2022-09-06T20:03:31.146Z,99997.91
2022-09-06T20:05:57.964Z,99996.69
2022-09-06T20:08:24.902Z,100007.78
2022-09-06T20:10:51.806Z,100005.41
2022-09-06T20:13:18.119Z,99996.13
2022-09-06T20:15:45.833Z,100003.09
2022-09-06T20:18:12.155Z,99999.84
2022-09-06T20:20:38.495Z,99998.00
2022-09-06T20:23:04.845Z,99996.19
2022-09-06T20:25:31.318Z,99991.66
2022-09-06T20:27:57.698Z,99990.81
2022-09-06T20:30:24.330Z,99985.91
2022-09-06T20:32:52.064Z,99981.53
2022-09-06T20:35:18.406Z,99976.94
2022-09-06T20:37:44.716Z,99980.97
2022-09-06T20:40:11.166Z,99982.38
2022-09-06T20:42:37.598Z,99982.59
2022-09-06T20:45:04.227Z,99976.38
2022-09-06T20:47:30.538Z,99976.00
2022-09-06T20:49:58.161Z,99982.88
2022-09-06T20:52:24.513Z,99979.59
2022-09-06T20:54:50.875Z,99985.13
2022-09-06T20:57:17.414Z,99993.22
2022-09-06T20:59:43.966Z,99984.44
2022-09-06T21:02:10.343Z,99985.53
2022-09-06T21:04:36.799Z,99987.13
2022-09-06T21:07:04.509Z,99989.50
2022-09-06T21:09:30.852Z,99991.94
2022-09-06T21:11:57.173Z,99996.06
2022-09-06T21:14:23.518Z,99992.69
2022-09-06T21:16:49.893Z,99992.97
2022-09-06T21:19:16.479Z,99991.03
2022-09-06T21:21:43.278Z,100000.09
2022-09-06T21:24:11.131Z,99997.94
2022-09-06T21:26:37.619Z,100005.53
2022-09-06T21:29:04.584Z,100014.22
2022-09-06T21:31:31.783Z,99998.34
2022-09-06T21:33:58.804Z,100005.56
2022-09-06T21:36:26.228Z,99999.59
2022-09-06T21:38:53.460Z,100005.56
2022-09-06T21:41:21.859Z,100001.69
2022-09-06T21:43:51.161Z,99989.25
2022-09-06T21:46:18.689Z,99984.97
2022-09-06T21:48:46.037Z,99981.75
2022-09-06T21:51:12.966Z,99994.06
2022-09-06T21:53:39.940Z,99989.28
2022-09-06T21:56:06.839Z,99998.69
2022-09-06T21:58:34.912Z,99997.88
2022-09-06T22:01:01.926Z,99994.81
2022-09-06T22:03:29.521Z,99999.63
2022-09-06T22:05:55.955Z,99998.25
2022-09-06T22:08:22.970Z,99988.06
2022-09-06T22:10:49.800Z,99985.22
2022-09-06T22:13:16.382Z,99985.78
2022-09-06T22:15:44.523Z,99983.19
2022-09-06T22:18:11.217Z,99981.44
2022-09-06T22:20:37.945Z,99976.75
2022-09-06T22:23:04.764Z,99981.22
2022-09-06T22:25:31.150Z,99981.75
2022-09-06T22:27:57.572Z,99995.38
2022-09-06T22:30:25.868Z,99989.69
2022-09-06T22:32:53.784Z,99986.16
2022-09-06T22:35:20.524Z,99994.06
2022-09-06T22:37:46.845Z,99991.13
2022-09-06T22:40:13.298Z,99986.28
2022-09-06T22:42:39.702Z,99988.44
2022-09-06T22:45:06.393Z,99982.03
2022-09-06T22:47:32.692Z,99984.63
2022-09-06T22:50:00.349Z,99990.56
2022-09-06T22:52:26.697Z,99990.31
2022-09-06T22:54:53.129Z,99988.47
2022-09-06T22:57:19.449Z,99972.94
2022-09-06T22:59:45.790Z,99979.47
2022-09-06T23:02:12.132Z,99975.53
2022-09-06T23:04:38.667Z,99972.34
2022-09-06T23:07:06.301Z,99967.66
2022-09-06T23:09:32.643Z,99974.97
2022-09-06T23:11:59.066Z,99968.00
2022-09-06T23:14:27.208Z,99973.63
2022-09-06T23:16:53.565Z,99965.00
2022-09-06T23:19:19.912Z,99959.16
2022-09-06T23:21:46.231Z,99950.97
2022-09-06T23:24:13.992Z,99958.75
2022-09-06T23:26:40.319Z,99954.03
2022-09-06T23:29:06.664Z,99953.03
2022-09-06T23:31:33.208Z,99945.69
2022-09-06T23:34:00.560Z,99943.22
2022-09-06T23:36:27.711Z,99947.72
2022-09-06T23:38:54.070Z,99949.59
2022-09-06T23:41:21.722Z,99947.03
2022-09-06T23:43:48.138Z,99937.22
2022-09-06T23:46:14.640Z,99948.38
2022-09-06T23:48:41.595Z,99943.16
2022-09-06T23:51:08.395Z,99944.00
2022-09-06T23:53:34.729Z,99947.22
2022-09-06T23:56:01.330Z,99949.53
2022-09-06T23:58:29.195Z,99954.84
